sensor_id;sensor_type;location;lat;lon;timestamp;temperature;humidity
75262;DHT22;63859;51.064;4.580;2023-04-08T00:00:36;8.70;99.90
75262;DHT22;63859;51.064;4.580;2023-04-08T00:03:02;8.70;99.90
75262;DHT22;63859;51.064;4.580;2023-04-08T00:05:28;8.70;99.90
75262;DHT22;63859;51.064;4.580;2023-04-08T00:07:53;8.50;99.90
75262;DHT22;63859;51.064;4.580;2023-04-08T00:10:19;8.70;99.90
75262;DHT22;63859;51.064;4.580;2023-04-08T00:12:46;8.70;99.90
75262;DHT22;63859;51.064;4.580;2023-04-08T00:15:12;8.70;99.90
75262;DHT22;63859;51.064;4.580;2023-04-08T00:17:38;8.70;99.90
75262;DHT22;63859;51.064;4.580;2023-04-08T00:20:04;8.80;99.90
75262;DHT22;63859;51.064;4.580;2023-04-08T00:22:30;8.80;99.90
75262;DHT22;63859;51.064;4.580;2023-04-08T00:24:57;8.80;99.90
75262;DHT22;63859;51.064;4.580;2023-04-08T00:27:22;8.70;99.90
75262;DHT22;63859;51.064;4.580;2023-04-08T00:29:50;8.70;99.90
75262;DHT22;63859;51.064;4.580;2023-04-08T00:32:15;8.80;99.90
75262;DHT22;63859;51.064;4.580;2023-04-08T00:34:41;8.70;99.90
75262;DHT22;63859;51.064;4.580;2023-04-08T00:37:07;8.60;99.90
75262;DHT22;63859;51.064;4.580;2023-04-08T00:39:33;8.70;99.90
75262;DHT22;63859;51.064;4.580;2023-04-08T00:41:59;8.60;99.90
75262;DHT22;63859;51.064;4.580;2023-04-08T00:44:26;8.60;99.90
75262;DHT22;63859;51.064;4.580;2023-04-08T00:46:52;8.60;99.90
75262;DHT22;63859;51.064;4.580;2023-04-08T00:49:18;8.60;99.90
75262;DHT22;63859;51.064;4.580;2023-04-08T00:51:43;8.60;99.90
75262;DHT22;63859;51.064;4.580;2023-04-08T00:54:09;8.60;99.90
75262;DHT22;63859;51.064;4.580;2023-04-08T00:56:35;8.50;99.90
75262;DHT22;63859;51.064;4.580;2023-04-08T00:59:02;8.60;99.90
75262;DHT22;63859;51.064;4.580;2023-04-08T01:05:24;8.70;99.90
75262;DHT22;63859;51.064;4.580;2023-04-08T01:07:37;8.70;99.90
75262;DHT22;63859;51.064;4.580;2023-04-08T01:10:13;8.70;99.90
75262;DHT22;63859;51.064;4.580;2023-04-08T01:12:43;8.70;99.90
75262;DHT22;63859;51.064;4.580;2023-04-08T01:15:12;8.60;99.90
75262;DHT22;63859;51.064;4.580;2023-04-08T01:17:39;8.60;99.90
75262;DHT22;63859;51.064;4.580;2023-04-08T01:20:08;8.60;99.90
75262;DHT22;63859;51.064;4.580;2023-04-08T01:25:36;8.60;99.90
75262;DHT22;63859;51.064;4.580;2023-04-08T01:28:10;8.60;99.90
75262;DHT22;63859;51.064;4.580;2023-04-08T01:30:38;8.60;99.90
75262;DHT22;63859;51.064;4.580;2023-04-08T01:33:05;8.50;99.90
75262;DHT22;63859;51.064;4.580;2023-04-08T01:35:31;8.30;99.90
75262;DHT22;63859;51.064;4.580;2023-04-08T01:37:58;8.60;99.90
75262;DHT22;63859;51.064;4.580;2023-04-08T01:40:24;8.60;99.90
75262;DHT22;63859;51.064;4.580;2023-04-08T01:42:53;8.60;99.90
75262;DHT22;63859;51.064;4.580;2023-04-08T01:45:20;8.50;99.90
75262;DHT22;63859;51.064;4.580;2023-04-08T01:47:48;8.60;99.90
75262;DHT22;63859;51.064;4.580;2023-04-08T01:50:14;8.60;99.90
75262;DHT22;63859;51.064;4.580;2023-04-08T01:52:42;8.60;99.90
75262;DHT22;63859;51.064;4.580;2023-04-08T01:55:09;8.60;99.90
75262;DHT22;63859;51.064;4.580;2023-04-08T01:57:37;8.60;99.90
75262;DHT22;63859;51.064;4.580;2023-04-08T02:00:08;8.60;99.90
75262;DHT22;63859;51.064;4.580;2023-04-08T02:02:36;8.50;99.90
75262;DHT22;63859;51.064;4.580;2023-04-08T02:05:02;8.60;99.90
75262;DHT22;63859;51.064;4.580;2023-04-08T02:07:28;8.60;99.90
75262;DHT22;63859;51.064;4.580;2023-04-08T02:09:55;8.50;99.90
75262;DHT22;63859;51.064;4.580;2023-04-08T02:12:20;8.60;99.90
75262;DHT22;63859;51.064;4.580;2023-04-08T02:14:46;8.60;99.90
75262;DHT22;63859;51.064;4.580;2023-04-08T02:17:24;8.40;99.90
75262;DHT22;63859;51.064;4.580;2023-04-08T02:20:06;8.50;99.90
75262;DHT22;63859;51.064;4.580;2023-04-08T02:22:56;8.50;99.90
75262;DHT22;63859;51.064;4.580;2023-04-08T02:25:24;8.50;99.90
75262;DHT22;63859;51.064;4.580;2023-04-08T02:27:53;8.50;99.90
75262;DHT22;63859;51.064;4.580;2023-04-08T02:30:20;8.30;99.90
75262;DHT22;63859;51.064;4.580;2023-04-08T02:32:47;8.50;99.90
75262;DHT22;63859;51.064;4.580;2023-04-08T02:35:14;8.30;99.90
75262;DHT22;63859;51.064;4.580;2023-04-08T02:37:41;8.50;99.90
75262;DHT22;63859;51.064;4.580;2023-04-08T02:40:30;8.50;99.90
75262;DHT22;63859;51.064;4.580;2023-04-08T02:42:56;8.40;99.90
75262;DHT22;63859;51.064;4.580;2023-04-08T02:45:26;8.40;99.90
75262;DHT22;63859;51.064;4.580;2023-04-08T02:47:52;8.40;99.90
75262;DHT22;63859;51.064;4.580;2023-04-08T02:50:18;8.50;99.90
75262;DHT22;63859;51.064;4.580;2023-04-08T02:52:43;8.50;99.90
75262;DHT22;63859;51.064;4.580;2023-04-08T02:55:09;8.40;99.90
75262;DHT22;63859;51.064;4.580;2023-04-08T02:57:37;8.60;99.90
75262;DHT22;63859;51.064;4.580;2023-04-08T03:00:04;8.40;99.90
75262;DHT22;63859;51.064;4.580;2023-04-08T03:02:30;8.50;99.90
75262;DHT22;63859;51.064;4.580;2023-04-08T03:04:55;8.50;99.90
75262;DHT22;63859;51.064;4.580;2023-04-08T03:07:21;8.50;99.90
75262;DHT22;63859;51.064;4.580;2023-04-08T03:09:47;8.40;99.90
75262;DHT22;63859;51.064;4.580;2023-04-08T03:12:12;8.50;99.90
75262;DHT22;63859;51.064;4.580;2023-04-08T03:14:38;8.50;99.90
75262;DHT22;63859;51.064;4.580;2023-04-08T03:17:03;8.60;99.90
75262;DHT22;63859;51.064;4.580;2023-04-08T03:19:29;8.50;99.90
75262;DHT22;63859;51.064;4.580;2023-04-08T03:21:55;8.60;99.90
75262;DHT22;63859;51.064;4.580;2023-04-08T03:24:20;8.60;99.90
75262;DHT22;63859;51.064;4.580;2023-04-08T03:26:46;8.50;99.90
75262;DHT22;63859;51.064;4.580;2023-04-08T03:29:11;8.50;99.90
75262;DHT22;63859;51.064;4.580;2023-04-08T03:31:37;8.50;99.90
75262;DHT22;63859;51.064;4.580;2023-04-08T03:34:03;8.70;99.90
75262;DHT22;63859;51.064;4.580;2023-04-08T03:36:28;8.50;99.90
75262;DHT22;63859;51.064;4.580;2023-04-08T03:38:54;8.60;99.90
75262;DHT22;63859;51.064;4.580;2023-04-08T03:41:20;8.60;99.90
75262;DHT22;63859;51.064;4.580;2023-04-08T03:43:45;8.40;99.90
75262;DHT22;63859;51.064;4.580;2023-04-08T03:46:11;8.50;99.90
75262;DHT22;63859;51.064;4.580;2023-04-08T03:48:36;8.40;99.90
75262;DHT22;63859;51.064;4.580;2023-04-08T03:51:02;8.40;99.90
75262;DHT22;63859;51.064;4.580;2023-04-08T03:53:28;8.40;99.90
75262;DHT22;63859;51.064;4.580;2023-04-08T03:55:54;8.40;99.90
75262;DHT22;63859;51.064;4.580;2023-04-08T03:58:20;8.40;99.90
75262;DHT22;63859;51.064;4.580;2023-04-08T04:00:46;8.40;99.90
75262;DHT22;63859;51.064;4.580;2023-04-08T04:03:11;8.50;99.90
75262;DHT22;63859;51.064;4.580;2023-04-08T04:05:38;8.50;99.90
75262;DHT22;63859;51.064;4.580;2023-04-08T04:08:04;8.40;99.90
75262;DHT22;63859;51.064;4.580;2023-04-08T04:10:29;8.50;99.90
75262;DHT22;63859;51.064;4.580;2023-04-08T04:12:55;8.40;99.90
75262;DHT22;63859;51.064;4.580;2023-04-08T04:15:21;8.30;99.90
75262;DHT22;63859;51.064;4.580;2023-04-08T04:17:47;8.50;99.90
75262;DHT22;63859;51.064;4.580;2023-04-08T04:20:14;8.50;99.90
75262;DHT22;63859;51.064;4.580;2023-04-08T04:22:40;8.50;99.90
75262;DHT22;63859;51.064;4.580;2023-04-08T04:25:06;8.40;99.90
75262;DHT22;63859;51.064;4.580;2023-04-08T04:27:31;8.50;99.90
75262;DHT22;63859;51.064;4.580;2023-04-08T04:29:57;8.50;99.90
75262;DHT22;63859;51.064;4.580;2023-04-08T04:32:22;8.50;99.90
75262;DHT22;63859;51.064;4.580;2023-04-08T04:34:48;8.60;99.90
75262;DHT22;63859;51.064;4.580;2023-04-08T04:37:14;8.50;99.90
75262;DHT22;63859;51.064;4.580;2023-04-08T04:39:39;8.50;99.90
75262;DHT22;63859;51.064;4.580;2023-04-08T04:42:05;8.60;99.90
75262;DHT22;63859;51.064;4.580;2023-04-08T04:44:31;8.50;99.90
75262;DHT22;63859;51.064;4.580;2023-04-08T04:46:57;8.50;99.90
75262;DHT22;63859;51.064;4.580;2023-04-08T04:49:22;8.50;99.90
75262;DHT22;63859;51.064;4.580;2023-04-08T04:51:48;8.50;99.90
75262;DHT22;63859;51.064;4.580;2023-04-08T04:54:13;8.50;99.90
75262;DHT22;63859;51.064;4.580;2023-04-08T04:56:39;8.50;99.90
75262;DHT22;63859;51.064;4.580;2023-04-08T04:59:05;8.60;99.90
75262;DHT22;63859;51.064;4.580;2023-04-08T05:01:31;8.60;99.90
75262;DHT22;63859;51.064;4.580;2023-04-08T05:03:56;8.60;99.90
75262;DHT22;63859;51.064;4.580;2023-04-08T05:06:22;8.60;99.90
75262;DHT22;63859;51.064;4.580;2023-04-08T05:08:48;8.60;99.90
75262;DHT22;63859;51.064;4.580;2023-04-08T05:11:16;8.60;99.90
75262;DHT22;63859;51.064;4.580;2023-04-08T05:13:43;8.60;99.90
75262;DHT22;63859;51.064;4.580;2023-04-08T05:16:08;8.50;99.90
75262;DHT22;63859;51.064;4.580;2023-04-08T05:18:35;8.60;99.90
75262;DHT22;63859;51.064;4.580;2023-04-08T05:21:01;8.60;99.90
75262;DHT22;63859;51.064;4.580;2023-04-08T05:23:26;8.60;99.90
75262;DHT22;63859;51.064;4.580;2023-04-08T05:25:52;8.60;99.90
75262;DHT22;63859;51.064;4.580;2023-04-08T05:28:18;8.50;99.90
75262;DHT22;63859;51.064;4.580;2023-04-08T05:30:53;8.50;99.90
75262;DHT22;63859;51.064;4.580;2023-04-08T05:33:19;8.40;99.90
75262;DHT22;63859;51.064;4.580;2023-04-08T05:35:44;8.40;99.90
75262;DHT22;63859;51.064;4.580;2023-04-08T05:38:11;8.40;99.90
75262;DHT22;63859;51.064;4.580;2023-04-08T05:40:36;8.40;99.90
75262;DHT22;63859;51.064;4.580;2023-04-08T05:43:02;8.40;99.90
75262;DHT22;63859;51.064;4.580;2023-04-08T05:45:28;8.50;99.90
75262;DHT22;63859;51.064;4.580;2023-04-08T05:47:54;8.40;99.90
75262;DHT22;63859;51.064;4.580;2023-04-08T05:50:20;8.40;99.90
75262;DHT22;63859;51.064;4.580;2023-04-08T05:52:45;8.40;99.90
75262;DHT22;63859;51.064;4.580;2023-04-08T05:55:12;8.40;99.90
75262;DHT22;63859;51.064;4.580;2023-04-08T05:57:38;8.40;99.90
75262;DHT22;63859;51.064;4.580;2023-04-08T06:00:05;8.40;99.90
75262;DHT22;63859;51.064;4.580;2023-04-08T06:02:32;8.40;99.90
75262;DHT22;63859;51.064;4.580;2023-04-08T06:04:58;8.50;99.90
75262;DHT22;63859;51.064;4.580;2023-04-08T06:07:24;8.50;99.90
75262;DHT22;63859;51.064;4.580;2023-04-08T06:09:49;8.50;99.90
75262;DHT22;63859;51.064;4.580;2023-04-08T06:12:15;8.50;99.90
75262;DHT22;63859;51.064;4.580;2023-04-08T06:14:40;8.50;99.90
75262;DHT22;63859;51.064;4.580;2023-04-08T06:17:06;8.50;99.90
75262;DHT22;63859;51.064;4.580;2023-04-08T06:19:32;8.50;99.90
75262;DHT22;63859;51.064;4.580;2023-04-08T06:21:57;8.60;99.90
75262;DHT22;63859;51.064;4.580;2023-04-08T06:24:27;8.70;99.90
75262;DHT22;63859;51.064;4.580;2023-04-08T06:26:54;8.70;99.90
75262;DHT22;63859;51.064;4.580;2023-04-08T06:29:21;8.70;99.90
75262;DHT22;63859;51.064;4.580;2023-04-08T06:31:47;8.70;99.90
75262;DHT22;63859;51.064;4.580;2023-04-08T06:34:13;8.80;99.90
75262;DHT22;63859;51.064;4.580;2023-04-08T06:36:38;8.80;99.90
75262;DHT22;63859;51.064;4.580;2023-04-08T06:39:04;8.70;99.90
75262;DHT22;63859;51.064;4.580;2023-04-08T06:41:30;8.90;99.90
75262;DHT22;63859;51.064;4.580;2023-04-08T06:43:55;8.90;99.90
75262;DHT22;63859;51.064;4.580;2023-04-08T06:46:21;8.90;99.90
75262;DHT22;63859;51.064;4.580;2023-04-08T06:48:47;9.10;99.90
75262;DHT22;63859;51.064;4.580;2023-04-08T06:51:12;9.00;99.90
75262;DHT22;63859;51.064;4.580;2023-04-08T06:53:38;9.10;99.90
75262;DHT22;63859;51.064;4.580;2023-04-08T06:56:04;9.10;99.90
75262;DHT22;63859;51.064;4.580;2023-04-08T06:58:29;9.10;99.90
75262;DHT22;63859;51.064;4.580;2023-04-08T07:00:55;9.20;99.90
75262;DHT22;63859;51.064;4.580;2023-04-08T07:03:22;9.20;99.90
75262;DHT22;63859;51.064;4.580;2023-04-08T07:05:47;9.20;99.90
75262;DHT22;63859;51.064;4.580;2023-04-08T07:08:13;9.30;99.90
75262;DHT22;63859;51.064;4.580;2023-04-08T07:10:39;9.30;99.90
75262;DHT22;63859;51.064;4.580;2023-04-08T07:13:04;9.30;99.90
75262;DHT22;63859;51.064;4.580;2023-04-08T07:15:30;9.40;99.90
75262;DHT22;63859;51.064;4.580;2023-04-08T07:17:56;9.40;99.90
75262;DHT22;63859;51.064;4.580;2023-04-08T07:20:22;9.30;99.90
75262;DHT22;63859;51.064;4.580;2023-04-08T07:22:48;9.50;99.90
75262;DHT22;63859;51.064;4.580;2023-04-08T07:25:14;9.50;99.90
75262;DHT22;63859;51.064;4.580;2023-04-08T07:27:40;9.50;99.90
75262;DHT22;63859;51.064;4.580;2023-04-08T07:30:06;9.50;99.90
75262;DHT22;63859;51.064;4.580;2023-04-08T07:32:32;9.60;99.90
75262;DHT22;63859;51.064;4.580;2023-04-08T07:34:59;9.70;99.90
75262;DHT22;63859;51.064;4.580;2023-04-08T07:37:26;9.60;99.90
75262;DHT22;63859;51.064;4.580;2023-04-08T07:39:52;9.70;99.90
75262;DHT22;63859;51.064;4.580;2023-04-08T07:42:17;9.70;99.90
75262;DHT22;63859;51.064;4.580;2023-04-08T07:44:44;9.70;99.90
75262;DHT22;63859;51.064;4.580;2023-04-08T07:47:10;9.90;99.90
75262;DHT22;63859;51.064;4.580;2023-04-08T07:49:36;9.80;99.90
75262;DHT22;63859;51.064;4.580;2023-04-08T07:52:03;9.80;99.90
75262;DHT22;63859;51.064;4.580;2023-04-08T07:54:30;9.90;99.90
75262;DHT22;63859;51.064;4.580;2023-04-08T07:56:56;9.90;99.90
75262;DHT22;63859;51.064;4.580;2023-04-08T07:59:21;9.90;99.90
75262;DHT22;63859;51.064;4.580;2023-04-08T08:01:47;10.20;99.90
75262;DHT22;63859;51.064;4.580;2023-04-08T08:04:12;10.20;99.90
75262;DHT22;63859;51.064;4.580;2023-04-08T08:06:38;10.20;99.90
75262;DHT22;63859;51.064;4.580;2023-04-08T08:09:05;10.30;99.90
75262;DHT22;63859;51.064;4.580;2023-04-08T08:11:30;10.30;99.90
75262;DHT22;63859;51.064;4.580;2023-04-08T08:13:57;10.30;99.90
75262;DHT22;63859;51.064;4.580;2023-04-08T08:16:23;10.40;99.90
75262;DHT22;63859;51.064;4.580;2023-04-08T08:18:51;10.50;99.90
75262;DHT22;63859;51.064;4.580;2023-04-08T08:21:17;10.50;99.90
75262;DHT22;63859;51.064;4.580;2023-04-08T08:23:42;10.50;99.90
75262;DHT22;63859;51.064;4.580;2023-04-08T08:26:08;10.60;99.90
75262;DHT22;63859;51.064;4.580;2023-04-08T08:28:34;10.60;99.90
75262;DHT22;63859;51.064;4.580;2023-04-08T08:31:00;10.70;99.90
75262;DHT22;63859;51.064;4.580;2023-04-08T08:33:26;10.80;99.90
75262;DHT22;63859;51.064;4.580;2023-04-08T08:35:52;10.90;99.90
75262;DHT22;63859;51.064;4.580;2023-04-08T08:38:18;10.90;99.90
75262;DHT22;63859;51.064;4.580;2023-04-08T08:40:44;11.00;99.90
75262;DHT22;63859;51.064;4.580;2023-04-08T08:43:11;11.00;99.90
75262;DHT22;63859;51.064;4.580;2023-04-08T08:45:40;11.00;99.90
75262;DHT22;63859;51.064;4.580;2023-04-08T08:48:07;11.10;99.90
75262;DHT22;63859;51.064;4.580;2023-04-08T08:50:36;11.10;99.90
75262;DHT22;63859;51.064;4.580;2023-04-08T08:53:02;11.10;99.90
75262;DHT22;63859;51.064;4.580;2023-04-08T08:55:30;11.20;99.90
75262;DHT22;63859;51.064;4.580;2023-04-08T08:58:02;11.20;99.90
75262;DHT22;63859;51.064;4.580;2023-04-08T09:00:38;11.20;99.90
75262;DHT22;63859;51.064;4.580;2023-04-08T09:03:25;11.30;99.90
75262;DHT22;63859;51.064;4.580;2023-04-08T09:05:58;11.40;99.90
75262;DHT22;63859;51.064;4.580;2023-04-08T09:08:34;11.40;99.90
75262;DHT22;63859;51.064;4.580;2023-04-08T09:11:15;11.30;99.90
75262;DHT22;63859;51.064;4.580;2023-04-08T09:13:41;11.40;99.90
75262;DHT22;63859;51.064;4.580;2023-04-08T09:16:09;11.40;99.90
75262;DHT22;63859;51.064;4.580;2023-04-08T09:18:36;11.40;99.90
75262;DHT22;63859;51.064;4.580;2023-04-08T09:21:03;11.50;99.90
75262;DHT22;63859;51.064;4.580;2023-04-08T09:23:46;11.60;99.90
75262;DHT22;63859;51.064;4.580;2023-04-08T09:26:17;11.70;99.90
75262;DHT22;63859;51.064;4.580;2023-04-08T09:31:29;11.90;99.90
75262;DHT22;63859;51.064;4.580;2023-04-08T09:34:00;12.00;99.90
75262;DHT22;63859;51.064;4.580;2023-04-08T09:36:28;11.90;99.90
75262;DHT22;63859;51.064;4.580;2023-04-08T09:38:54;12.00;99.90
75262;DHT22;63859;51.064;4.580;2023-04-08T09:41:21;12.30;99.90
75262;DHT22;63859;51.064;4.580;2023-04-08T09:43:49;12.40;99.90
75262;DHT22;63859;51.064;4.580;2023-04-08T09:46:17;12.50;99.90
75262;DHT22;63859;51.064;4.580;2023-04-08T09:48:57;12.60;99.90
75262;DHT22;63859;51.064;4.580;2023-04-08T09:51:31;12.50;99.90
75262;DHT22;63859;51.064;4.580;2023-04-08T09:54:03;12.50;99.90
75262;DHT22;63859;51.064;4.580;2023-04-08T09:56:38;12.50;99.90
75262;DHT22;63859;51.064;4.580;2023-04-08T09:59:12;12.40;99.90
75262;DHT22;63859;51.064;4.580;2023-04-08T10:01:51;12.50;99.90
75262;DHT22;63859;51.064;4.580;2023-04-08T10:04:19;12.60;99.90
75262;DHT22;63859;51.064;4.580;2023-04-08T10:06:56;12.70;99.90
75262;DHT22;63859;51.064;4.580;2023-04-08T10:09:22;12.80;99.90
75262;DHT22;63859;51.064;4.580;2023-04-08T10:11:48;12.80;99.90
75262;DHT22;63859;51.064;4.580;2023-04-08T10:14:14;12.80;99.90
75262;DHT22;63859;51.064;4.580;2023-04-08T10:16:40;12.80;99.90
75262;DHT22;63859;51.064;4.580;2023-04-08T10:19:35;12.80;99.90
75262;DHT22;63859;51.064;4.580;2023-04-08T10:22:01;12.90;99.90
75262;DHT22;63859;51.064;4.580;2023-04-08T10:24:27;12.90;99.90
75262;DHT22;63859;51.064;4.580;2023-04-08T10:26:53;13.00;99.90
75262;DHT22;63859;51.064;4.580;2023-04-08T10:31:49;13.70;99.90
75262;DHT22;63859;51.064;4.580;2023-04-08T10:34:20;13.70;99.90
75262;DHT22;63859;51.064;4.580;2023-04-08T10:36:47;13.70;99.90
75262;DHT22;63859;51.064;4.580;2023-04-08T10:39:14;13.70;99.90
75262;DHT22;63859;51.064;4.580;2023-04-08T10:41:44;13.70;99.90
75262;DHT22;63859;51.064;4.580;2023-04-08T10:44:21;13.50;99.90
75262;DHT22;63859;51.064;4.580;2023-04-08T10:46:48;13.40;99.90
75262;DHT22;63859;51.064;4.580;2023-04-08T10:49:15;13.20;99.90
75262;DHT22;63859;51.064;4.580;2023-04-08T10:51:42;13.00;99.90
75262;DHT22;63859;51.064;4.580;2023-04-08T10:54:13;13.00;99.90
75262;DHT22;63859;51.064;4.580;2023-04-08T10:56:44;13.20;99.90
75262;DHT22;63859;51.064;4.580;2023-04-08T10:59:12;13.50;99.90
75262;DHT22;63859;51.064;4.580;2023-04-08T11:01:40;13.70;99.90
75262;DHT22;63859;51.064;4.580;2023-04-08T11:04:14;13.90;99.90
75262;DHT22;63859;51.064;4.580;2023-04-08T11:06:42;14.10;99.90
75262;DHT22;63859;51.064;4.580;2023-04-08T11:09:07;14.30;99.90
75262;DHT22;63859;51.064;4.580;2023-04-08T11:11:33;14.40;99.90
75262;DHT22;63859;51.064;4.580;2023-04-08T11:14:00;14.30;99.90
75262;DHT22;63859;51.064;4.580;2023-04-08T11:16:26;14.50;99.90
75262;DHT22;63859;51.064;4.580;2023-04-08T11:18:53;14.80;99.90
75262;DHT22;63859;51.064;4.580;2023-04-08T11:21:22;15.10;99.90
75262;DHT22;63859;51.064;4.580;2023-04-08T11:23:51;15.60;99.90
75262;DHT22;63859;51.064;4.580;2023-04-08T11:26:18;16.00;99.90
75262;DHT22;63859;51.064;4.580;2023-04-08T11:28:44;16.20;99.90
75262;DHT22;63859;51.064;4.580;2023-04-08T11:31:11;16.40;99.90
75262;DHT22;63859;51.064;4.580;2023-04-08T11:33:42;16.30;99.90
75262;DHT22;63859;51.064;4.580;2023-04-08T11:36:11;15.80;99.90
75262;DHT22;63859;51.064;4.580;2023-04-08T11:38:40;15.40;99.90
75262;DHT22;63859;51.064;4.580;2023-04-08T11:41:06;15.30;99.90
75262;DHT22;63859;51.064;4.580;2023-04-08T11:43:32;15.20;99.90
75262;DHT22;63859;51.064;4.580;2023-04-08T11:45:58;15.00;99.90
75262;DHT22;63859;51.064;4.580;2023-04-08T11:48:23;15.00;99.90
75262;DHT22;63859;51.064;4.580;2023-04-08T11:51:04;14.90;99.90
75262;DHT22;63859;51.064;4.580;2023-04-08T11:53:31;14.90;99.90
75262;DHT22;63859;51.064;4.580;2023-04-08T11:55:56;15.00;99.90
75262;DHT22;63859;51.064;4.580;2023-04-08T11:58:22;15.00;99.90
75262;DHT22;63859;51.064;4.580;2023-04-08T12:00:48;14.90;99.90
75262;DHT22;63859;51.064;4.580;2023-04-08T12:03:13;15.00;99.90
75262;DHT22;63859;51.064;4.580;2023-04-08T12:05:40;14.90;99.90
75262;DHT22;63859;51.064;4.580;2023-04-08T12:08:05;15.00;99.90
75262;DHT22;63859;51.064;4.580;2023-04-08T12:10:31;15.30;99.90
75262;DHT22;63859;51.064;4.580;2023-04-08T12:12:57;15.50;99.90
75262;DHT22;63859;51.064;4.580;2023-04-08T12:15:23;15.40;99.90
75262;DHT22;63859;51.064;4.580;2023-04-08T12:17:48;15.40;99.90
75262;DHT22;63859;51.064;4.580;2023-04-08T12:20:14;15.30;99.90
75262;DHT22;63859;51.064;4.580;2023-04-08T12:22:41;15.20;99.90
75262;DHT22;63859;51.064;4.580;2023-04-08T12:25:07;15.10;99.90
75262;DHT22;63859;51.064;4.580;2023-04-08T12:27:33;14.90;99.90
75262;DHT22;63859;51.064;4.580;2023-04-08T12:29:59;14.80;99.90
75262;DHT22;63859;51.064;4.580;2023-04-08T12:32:25;14.80;99.90
75262;DHT22;63859;51.064;4.580;2023-04-08T12:34:51;14.70;99.90
75262;DHT22;63859;51.064;4.580;2023-04-08T12:37:16;14.60;99.90
75262;DHT22;63859;51.064;4.580;2023-04-08T12:39:42;14.50;99.90
75262;DHT22;63859;51.064;4.580;2023-04-08T12:42:08;14.40;99.90
75262;DHT22;63859;51.064;4.580;2023-04-08T12:44:34;14.30;99.90
75262;DHT22;63859;51.064;4.580;2023-04-08T12:47:00;14.30;99.90
75262;DHT22;63859;51.064;4.580;2023-04-08T12:49:25;14.70;99.90
75262;DHT22;63859;51.064;4.580;2023-04-08T12:51:52;15.40;99.90
75262;DHT22;63859;51.064;4.580;2023-04-08T12:54:19;15.90;99.90
75262;DHT22;63859;51.064;4.580;2023-04-08T12:56:45;16.30;99.90
75262;DHT22;63859;51.064;4.580;2023-04-08T12:59:11;16.80;99.90
75262;DHT22;63859;51.064;4.580;2023-04-08T13:01:36;16.90;99.90
75262;DHT22;63859;51.064;4.580;2023-04-08T13:04:02;16.50;99.90
75262;DHT22;63859;51.064;4.580;2023-04-08T13:06:28;16.00;99.90
75262;DHT22;63859;51.064;4.580;2023-04-08T13:08:53;15.90;99.90
75262;DHT22;63859;51.064;4.580;2023-04-08T13:11:19;16.30;99.90
75262;DHT22;63859;51.064;4.580;2023-04-08T13:13:46;17.00;99.90
75262;DHT22;63859;51.064;4.580;2023-04-08T13:16:12;17.60;99.90
75262;DHT22;63859;51.064;4.580;2023-04-08T13:18:41;18.10;99.90
75262;DHT22;63859;51.064;4.580;2023-04-08T13:21:08;18.00;99.90
75262;DHT22;63859;51.064;4.580;2023-04-08T13:23:34;17.80;99.90
75262;DHT22;63859;51.064;4.580;2023-04-08T13:26:00;17.60;99.90
75262;DHT22;63859;51.064;4.580;2023-04-08T13:28:26;17.70;99.90
75262;DHT22;63859;51.064;4.580;2023-04-08T13:30:51;17.90;99.90
75262;DHT22;63859;51.064;4.580;2023-04-08T13:33:18;17.90;99.90
75262;DHT22;63859;51.064;4.580;2023-04-08T13:35:43;17.60;99.90
75262;DHT22;63859;51.064;4.580;2023-04-08T13:38:09;17.40;99.90
75262;DHT22;63859;51.064;4.580;2023-04-08T13:40:34;17.60;99.90
75262;DHT22;63859;51.064;4.580;2023-04-08T13:43:00;17.70;99.90
75262;DHT22;63859;51.064;4.580;2023-04-08T13:45:26;17.80;99.90
75262;DHT22;63859;51.064;4.580;2023-04-08T13:47:52;18.00;99.90
75262;DHT22;63859;51.064;4.580;2023-04-08T13:50:17;18.50;99.90
75262;DHT22;63859;51.064;4.580;2023-04-08T13:52:43;18.70;99.50
75262;DHT22;63859;51.064;4.580;2023-04-08T13:55:09;19.00;97.20
75262;DHT22;63859;51.064;4.580;2023-04-08T13:57:34;19.00;94.60
75262;DHT22;63859;51.064;4.580;2023-04-08T14:00:01;18.60;92.90
75262;DHT22;63859;51.064;4.580;2023-04-08T14:02:26;18.50;91.30
75262;DHT22;63859;51.064;4.580;2023-04-08T14:04:52;18.60;88.90
75262;DHT22;63859;51.064;4.580;2023-04-08T14:07:18;18.80;86.00
75262;DHT22;63859;51.064;4.580;2023-04-08T14:09:44;19.10;86.80
75262;DHT22;63859;51.064;4.580;2023-04-08T14:12:09;19.60;89.10
75262;DHT22;63859;51.064;4.580;2023-04-08T14:14:35;19.60;87.20
75262;DHT22;63859;51.064;4.580;2023-04-08T14:17:01;19.70;84.90
75262;DHT22;63859;51.064;4.580;2023-04-08T14:19:26;20.20;87.20
75262;DHT22;63859;51.064;4.580;2023-04-08T14:21:52;20.20;82.60
75262;DHT22;63859;51.064;4.580;2023-04-08T14:24:18;20.70;84.20
75262;DHT22;63859;51.064;4.580;2023-04-08T14:26:43;21.10;86.50
75262;DHT22;63859;51.064;4.580;2023-04-08T14:29:09;21.40;87.00
75262;DHT22;63859;51.064;4.580;2023-04-08T14:31:35;21.60;84.00
75262;DHT22;63859;51.064;4.580;2023-04-08T14:34:01;21.20;79.00
75262;DHT22;63859;51.064;4.580;2023-04-08T14:36:27;20.90;80.50
75262;DHT22;63859;51.064;4.580;2023-04-08T14:38:54;20.60;82.40
75262;DHT22;63859;51.064;4.580;2023-04-08T14:41:20;20.20;82.20
75262;DHT22;63859;51.064;4.580;2023-04-08T14:43:46;19.80;83.40
75262;DHT22;63859;51.064;4.580;2023-04-08T14:46:12;19.40;85.00
75262;DHT22;63859;51.064;4.580;2023-04-08T14:48:38;19.10;84.50
75262;DHT22;63859;51.064;4.580;2023-04-08T14:51:04;18.90;85.80
75262;DHT22;63859;51.064;4.580;2023-04-08T14:53:30;18.40;86.20
75262;DHT22;63859;51.064;4.580;2023-04-08T14:55:55;18.10;88.60
75262;DHT22;63859;51.064;4.580;2023-04-08T14:58:21;18.00;88.00
75262;DHT22;63859;51.064;4.580;2023-04-08T15:00:47;17.70;88.50
75262;DHT22;63859;51.064;4.580;2023-04-08T15:03:13;17.50;89.70
75262;DHT22;63859;51.064;4.580;2023-04-08T15:05:39;17.30;90.90
75262;DHT22;63859;51.064;4.580;2023-04-08T15:08:05;17.30;91.20
75262;DHT22;63859;51.064;4.580;2023-04-08T15:10:31;17.20;92.80
75262;DHT22;63859;51.064;4.580;2023-04-08T15:12:57;17.10;92.50
75262;DHT22;63859;51.064;4.580;2023-04-08T15:15:22;17.00;91.70
75262;DHT22;63859;51.064;4.580;2023-04-08T15:17:48;17.00;92.60
75262;DHT22;63859;51.064;4.580;2023-04-08T15:20:14;17.50;93.00
75262;DHT22;63859;51.064;4.580;2023-04-08T15:22:39;18.20;90.50
75262;DHT22;63859;51.064;4.580;2023-04-08T15:25:06;18.80;86.00
75262;DHT22;63859;51.064;4.580;2023-04-08T15:27:32;19.40;84.50
75262;DHT22;63859;51.064;4.580;2023-04-08T15:29:58;19.90;87.70
75262;DHT22;63859;51.064;4.580;2023-04-08T15:32:24;20.50;84.40
75262;DHT22;63859;51.064;4.580;2023-04-08T15:34:49;21.00;84.40
75262;DHT22;63859;51.064;4.580;2023-04-08T15:37:15;21.50;80.60
75262;DHT22;63859;51.064;4.580;2023-04-08T15:39:41;21.80;76.40
75262;DHT22;63859;51.064;4.580;2023-04-08T15:42:07;21.90;75.70
75262;DHT22;63859;51.064;4.580;2023-04-08T15:44:33;22.00;71.00
75262;DHT22;63859;51.064;4.580;2023-04-08T15:46:59;22.20;70.40